Cacilhas — VRUA8 — position and weather

sailwx.info

Track history (hours):
 
Tides and Currents Weather Stations Pressure Air Temp Water Temp Dewpoint Dewpoint Depression Visibility Wind Speed Wind Dir Waves Ship Positions

Cacilhas

Last reported at 2014-Jun-13 06:09 UTC. Time now 2014-Oct-22 22:36 UTC.
Position N 22°11' E 113°35'.
Warning: this ship's position is months out of date.

Length 29 m; draft 4.6 m.

Type: High speed craft. MMSI: 477092000.

Date/timePositionNaut miles runAvg speedWind from/ knotsBaromVisibWave heightAir tempDewpointWater temp
2014-Jun-13 06:09N 22°11' E 113°35'0 0.0
2014-Jun-13 05:32N 22°11' E 113°35'0 0.0
2014-Jun-13 04:33N 22°11' E 113°35'0 0.0
2014-Jun-13 03:33N 22°11' E 113°35'0 0.0
2014-Jun-13 02:32N 22°11' E 113°35'0 0.0
2014-Jun-13 01:33N 22°11' E 113°35'3231.9
2014-Jun-13 00:32N 22°17' E 114°09'1515.7
2014-Jun-12 23:33N 22°12' E 113°54'1918.6
2014-Jun-12 22:33N 22°12' E 113°34'0 0.0
2014-Jun-12 21:33N 22°12' E 113°34'0 0.0
2014-Jun-12 20:34N 22°12' E 113°34'0 0.0
2014-Jun-12 19:34N 22°12' E 113°34'0 0.0
2014-Jun-12 18:33N 22°12' E 113°34'0 0.0
2014-Jun-12 17:33N 22°12' E 113°34'1717.3
2014-Jun-12 16:34N 22°12' E 113°52'1716.6
2014-Jun-12 15:34N 22°17' E 114°09'3333.2
2014-Jun-12 14:33N 22°12' E 113°34'1616.2
2014-Jun-12 13:33N 22°11' E 113°51'1817.7
2014-Jun-12 12:33N 22°17' E 114°09'3333.3
2014-Jun-12 11:33N 22°12' E 113°34'1918.6
2014-Jun-12 10:33N 22°12' E 113°54'2 1.9
2014-Jun-12 09:16N 22°12' E 113°56'2129.4
2014-Jun-12 08:33N 22°12' E 113°34'1919.5
2014-Jun-12 07:33N 22°12' E 113°55'1414.6
2014-Jun-12 06:34N 22°17' E 114°09'3333.0
2014-Jun-12 05:33N 22°12' E 113°34'1 0.6
2014-Jun-12 04:33N 22°11' E 113°34'3333.1
2014-Jun-12 03:33N 22°17' E 114°09'1717.4
2014-Jun-12 02:34N 22°11' E 113°52'1616.3
2014-Jun-12 01:33N 22°11' E 113°34'3332.9
2014-Jun-12 00:33N 22°17' E 114°09'33 5.6
2014-Jun-11 18:33N 22°12' E 113°34'1717.5
2014-Jun-11 17:33N 22°12' E 113°52'1616.4
2014-Jun-11 16:33N 22°17' E 114°09'1615.9
2014-Jun-11 15:33N 22°12' E 113°53'1818.0
2014-Jun-11 14:33N 22°11' E 113°34'3333.1
2014-Jun-11 13:33N 22°17' E 114°09'1310.9
2014-Jun-11 12:24N 22°12' E 113°57'2125.3
2014-Jun-11 11:33N 22°12' E 113°34'0 0.0
2014-Jun-11 10:33N 22°12' E 113°34'0 0.0
2014-Jun-11 09:33N 22°12' E 113°34'3333.2
2014-Jun-11 08:33N 22°17' E 114°09'1413.6
2014-Jun-11 07:33N 22°12' E 113°56'2020.5
2014-Jun-11 06:33N 22°12' E 113°34'0 0.0
2014-Jun-11 05:33N 22°12' E 113°34'7 6.9
2014-Jun-11 04:33N 22°11' E 113°41'2726.6
2014-Jun-11 03:33N 22°17' E 114°09'2827.9
2014-Jun-11 02:33N 22°10' E 113°40'1 0.9
2014-Jun-11 01:33N 22°11' E 113°40'2727.1
2014-Jun-11 00:33N 22°17' E 114°09'0 0.1
2014-Jun-10 23:33N 22°17' E 114°09'0 0.0
2014-Jun-10 22:33N 22°17' E 114°09'0 0.0
2014-Jun-10 21:33N 22°17' E 114°09'0 0.0
2014-Jun-10 20:33N 22°17' E 114°09'0 0.0
2014-Jun-10 19:33N 22°17' E 114°09'0 0.0
2014-Jun-10 18:33N 22°17' E 114°09'0 0.0
2014-Jun-10 17:33N 22°17' E 114°09'0 0.0
2014-Jun-10 16:33N 22°17' E 114°09'0 0.0
2014-Jun-10 15:33N 22°17' E 114°09'0 0.4
2014-Jun-10 14:33N 22°17' E 114°09'3332.7
2014-Jun-10 13:33N 22°12' E 113°34'0 0.0
2014-Jun-10 12:26N 22°12' E 113°34'3131.5
2014-Jun-10 11:26N 22°17' E 114°07'2 2.2
2014-Jun-10 10:33N 22°17' E 114°09'0 0.0
2014-Jun-10 09:33N 22°17' E 114°09'2019.8
2014-Jun-10 08:33N 22°11' E 113°49'1414.1
2014-Jun-10 07:33N 22°12' E 113°34'3229.1
2014-Jun-10 06:27N 22°17' E 114°08'29 9.9
2014-Jun-10 03:33N 22°11' E 113°37'3029.8
2014-Jun-10 02:33N 22°17' E 114°09'2727.3
2014-Jun-10 01:33N 22°11' E 113°41'6 5.6
2014-Jun-10 00:33N 22°12' E 113°47'2221.6
2014-Jun-09 23:33N 22°17' E 114°09'3333.3
2014-Jun-09 22:33N 22°12' E 113°34'4 4.1
2014-Jun-09 21:33N 22°11' E 113°38'3029.4
2014-Jun-09 20:33N 22°17' E 114°09'0 0.1
2014-Jun-09 19:34N 22°17' E 114°09'0 0.0
2014-Jun-09 18:33N 22°17' E 114°09'0 0.0
2014-Jun-09 17:34N 22°17' E 114°09'3333.2
2014-Jun-09 16:33N 22°12' E 113°34'0 0.0
2014-Jun-09 15:33N 22°12' E 113°34'3333.3
2014-Jun-09 14:33N 22°17' E 114°09'1716.6
2014-Jun-09 13:34N 22°11' E 113°52'1717.4
2014-Jun-09 12:33N 22°12' E 113°34'3333.6
2014-Jun-09 11:33N 22°17' E 114°09'1615.7
2014-Jun-09 10:34N 22°12' E 113°53'1818.3
2014-Jun-09 09:33N 22°12' E 113°34'0 0.0
2014-Jun-09 08:33N 22°12' E 113°34'0 0.0
2014-Jun-09 07:33N 22°12' E 113°34'0 0.0
2014-Jun-09 06:33N 22°12' E 113°34'3333.2
2014-Jun-09 05:33N 22°17' E 114°09'0 0.0
2014-Jun-09 04:33N 22°17' E 114°09'3333.3
2014-Jun-09 03:33N 22°12' E 113°34'1817.9
2014-Jun-09 02:33N 22°12' E 113°53'1615.9
2014-Jun-09 01:33N 22°17' E 114°09'3333.4
2014-Jun-09 00:33N 22°12' E 113°34'1717.2
2014-Jun-08 23:33N 22°12' E 113°52'1716.7
2014-Jun-08 22:33N 22°17' E 114°09'0 0.1
2014-Jun-08 21:33N 22°17' E 114°09'0 0.0
2014-Jun-08 20:33N 22°17' E 114°09'0 0.0
2014-Jun-08 19:33N 22°17' E 114°09'0 0.0
2014-Jun-08 18:33N 22°17' E 114°09'0 0.0
2014-Jun-08 17:31N 22°17' E 114°09'0 0.1
2014-Jun-08 16:33N 22°17' E 114°09'2828.6
2014-Jun-08 15:33N 22°10' E 113°40'3 3.1
2014-Jun-08 14:33N 22°12' E 113°43'2525.0
2014-Jun-08 13:33N 22°17' E 114°09'2727.2
2014-Jun-08 12:33N 22°11' E 113°41'7 6.5
2014-Jun-08 11:32N 22°12' E 113°34'0 0.1
2014-Jun-08 10:33N 22°12' E 113°34'3333.3
2014-Jun-08 09:33N 22°17' E 114°09'0 0.0
2014-Jun-08 08:33N 22°17' E 114°09'0 0.1
2014-Jun-08 07:33N 22°17' E 114°09'0 0.0
2014-Jun-08 06:33N 22°17' E 114°09'0 0.0
2014-Jun-08 05:33N 22°17' E 114°09'0 0.0
2014-Jun-08 04:32N 22°17' E 114°09'0 0.0
2014-Jun-08 03:32N 22°17' E 114°09'0 0.0
2014-Jun-08 02:33N 22°17' E 114°09'0 0.0
2014-Jun-08 01:33N 22°17' E 114°09'0 0.0
2014-Jun-08 00:33N 22°17' E 114°09'0 0.0
2014-Jun-07 23:33N 22°17' E 114°09'0 0.0
2014-Jun-07 22:33N 22°17' E 114°09'0 0.0
2014-Jun-07 21:33N 22°17' E 114°09'0 0.0
2014-Jun-07 20:34N 22°17' E 114°09'0 0.0
2014-Jun-07 19:32N 22°17' E 114°09'0 0.0
2014-Jun-07 18:32N 22°17' E 114°09'0 0.0
2014-Jun-07 17:33N 22°17' E 114°09'0 0.0
2014-Jun-07 16:33N 22°17' E 114°09'0 0.0
2014-Jun-07 15:33N 22°17' E 114°09'0 0.1
2014-Jun-07 14:33N 22°17' E 114°09'3333.6
2014-Jun-07 13:33N 22°12' E 113°34'0 0.1
2014-Jun-07 12:33N 22°12' E 113°34'3227.7
2014-Jun-07 11:24N 22°18' E 114°08'1 1.4
2014-Jun-07 10:33N 22°17' E 114°09'0 0.0
2014-Jun-07 09:33N 22°17' E 114°09'3029.8
2014-Jun-07 08:33N 22°11' E 113°38'6 5.7
2014-Jun-07 07:33N 22°12' E 113°44'2419.8
2014-Jun-07 06:21N 22°17' E 114°09'3138.7
2014-Jun-07 05:33N 22°10' E 113°37'3 3.4
2014-Jun-07 04:33N 22°12' E 113°34'3333.7
2014-Jun-07 03:33N 22°17' E 114°09'0 0.1
2014-Jun-07 02:33N 22°17' E 114°09'0 0.3
2014-Jun-07 01:33N 22°17' E 114°09'0 0.1
2014-Jun-07 00:32N 22°17' E 114°09'0 0.0
2014-Jun-06 23:33N 22°17' E 114°09'0 0.1
2014-Jun-06 22:33N 22°17' E 114°09'0 0.0
2014-Jun-06 21:33N 22°17' E 114°09'0 0.1
2014-Jun-06 20:33N 22°17' E 114°09'0 0.1
2014-Jun-06 19:33N 22°17' E 114°09'0 0.1
2014-Jun-06 18:33N 22°17' E 114°09'0 0.0
2014-Jun-06 17:33N 22°17' E 114°09'0 0.1
2014-Jun-06 16:32N 22°17' E 114°09'0 0.1
2014-Jun-06 15:33N 22°17' E 114°09'0 0.0
2014-Jun-06 14:33N 22°17' E 114°09'0 0.1
2014-Jun-06 13:32N 22°17' E 114°09'0 0.1
2014-Jun-06 12:31N 22°17' E 114°09'0 0.1
2014-Jun-06 11:32N 22°17' E 114°09'0 0.0
2014-Jun-06 10:33N 22°17' E 114°09'0 0.0
2014-Jun-06 09:33N 22°17' E 114°09'0 0.0
2014-Jun-06 08:33N 22°17' E 114°09'0 0.0
2014-Jun-06 07:33N 22°17' E 114°09'0 0.0
2014-Jun-06 06:32N 22°17' E 114°09'0 0.0
2014-Jun-06 05:33N 22°17' E 114°09'0 0.0
2014-Jun-06 04:33N 22°17' E 114°09'0 0.0
2014-Jun-06 03:34N 22°17' E 114°09'0 0.0
2014-Jun-06 02:33N 22°17' E 114°09'0 0.1
2014-Jun-06 01:33N 22°17' E 114°09'0 0.1
2014-Jun-06 00:33N 22°17' E 114°09'0 0.0
2014-Jun-05 23:33N 22°17' E 114°09'0 0.1
2014-Jun-05 22:33N 22°17' E 114°09'0 0.0
2014-Jun-05 21:33N 22°17' E 114°09'0 0.1
2014-Jun-05 20:33N 22°17' E 114°09'0 0.1
2014-Jun-05 19:33N 22°17' E 114°09'0 0.1
2014-Jun-05 18:33N 22°17' E 114°09'0 0.0
2014-Jun-05 17:07N 22°17' E 114°09'0 0.0
2014-Jun-05 16:33N 22°17' E 114°09'0 0.0
2014-Jun-05 15:33N 22°17' E 114°09'0 0.3
2014-Jun-05 14:33N 22°17' E 114°09'3333.1
2014-Jun-05 13:33N 22°12' E 113°34'0 0.0
2014-Jun-05 12:33N 22°12' E 113°34'3329.3
2014-Jun-05 11:27N 22°18' E 114°08'1 1.0
2014-Jun-05 10:33N 22°17' E 114°09'0 0.0
2014-Jun-05 09:32N 22°17' E 114°09'1818.1
2014-Jun-05 08:33N 22°11' E 113°51'1515.3
2014-Jun-05 07:33N 22°11' E 113°35'3332.6
2014-Jun-05 06:33N 22°17' E 114°09'0 0.0
2014-Jun-05 05:33N 22°17' E 114°09'3333.2
2014-Jun-05 04:33N 22°12' E 113°34'7 7.3
2014-Jun-05 03:33N 22°11' E 113°41'2626.3
2014-Jun-05 02:33N 22°17' E 114°09'2625.7
2014-Jun-05 01:34N 22°11' E 113°42'1 1.1
2014-Jun-05 00:33N 22°12' E 113°41'2626.0
2014-Jun-04 23:32N 22°17' E 114°09'0 0.1
2014-Jun-04 22:25N 22°17' E 114°09'0 0.0
2014-Jun-04 21:33N 22°17' E 114°09'0 0.0
2014-Jun-04 20:25N 22°17' E 114°09'1719.7
2014-Jun-04 19:34N 22°11' E 113°52'1717.0
2014-Jun-04 18:33N 22°12' E 113°34'1413.8
2014-Jun-04 17:33N 22°12' E 113°49'2019.8
2014-Jun-04 16:33N 22°17' E 114°09'10 9.6
2014-Jun-04 15:29N 22°12' E 113°60'2425.8
2014-Jun-04 14:33N 22°12' E 113°34'3228.8
2014-Jun-04 13:26N 22°18' E 114°08'1110.9
2014-Jun-04 12:27N 22°12' E 113°58'2325.5
2014-Jun-04 11:33N 22°12' E 113°34'0 0.0
2014-Jun-04 10:33N 22°12' E 113°34'0 0.0
2014-Jun-04 09:33N 22°12' E 113°34'0 0.0
2014-Jun-04 08:33N 22°12' E 113°34'0 0.0
2014-Jun-04 07:33N 22°12' E 113°34'0 0.0
2014-Jun-04 06:33N 22°12' E 113°34'0 0.2
2014-Jun-04 05:33N 22°12' E 113°34'3326.8
2014-Jun-04 04:19N 22°17' E 114°09'1312.3
2014-Jun-04 03:16N 22°12' E 113°57'2129.9
2014-Jun-04 02:34N 22°12' E 113°34'2221.7
2014-Jun-04 01:32N 22°12' E 113°57'12 9.4
2014-Jun-04 00:16N 22°17' E 114°09'0 0.0
2014-Jun-03 23:31N 22°17' E 114°09'0 0.1
2014-Jun-03 22:33N 22°17' E 114°09'0 0.0
2014-Jun-03 21:33N 22°17' E 114°09'0 0.0
2014-Jun-03 20:32N 22°17' E 114°09'0 0.0
2014-Jun-03 19:33N 22°17' E 114°09'0 0.0
2014-Jun-03 18:32N 22°17' E 114°09'0 0.0
2014-Jun-03 17:33N 22°17' E 114°09'0 0.0
2014-Jun-03 16:33N 22°17' E 114°09'1210.6
2014-Jun-03 15:25N 22°12' E 113°57'2225.5
2014-Jun-03 14:33N 22°12' E 113°34'3227.8
2014-Jun-03 13:24N 22°18' E 114°08'1011.1
2014-Jun-03 12:27N 22°12' E 113°58'2325.3
2014-Jun-03 11:33N 22°12' E 113°34'0 0.0
2014-Jun-03 10:33N 22°12' E 113°34'1 1.2
2014-Jun-03 09:33N 22°11' E 113°35'3332.3
2014-Jun-03 08:33N 22°17' E 114°09'1919.3
2014-Jun-03 07:34N 22°11' E 113°50'1514.7
2014-Jun-03 06:33N 22°12' E 113°34'  
Track history (hours):
 
Tides and Currents Weather Stations Pressure Air Temp Water Temp Dewpoint Dewpoint Depression Visibility Wind Speed Wind Dir Waves Ship Positions

Cacilhas

Last reported at 2014-Jun-13 06:09 UTC. Time now 2014-Oct-22 22:36 UTC.
Position N 22°11' E 113°35'.
Warning: this ship's position is months out of date.

Length 29 m; draft 4.6 m.

Type: High speed craft. MMSI: 477092000.

Date/timePositionNaut miles runAvg speedWind from/ knotsBaromVisibWave heightAir tempDewpointWater temp
2014-Jun-13 06:09N 22°11' E 113°35'0 0.0
2014-Jun-13 05:32N 22°11' E 113°35'0 0.0
2014-Jun-13 04:33N 22°11' E 113°35'0 0.0
2014-Jun-13 03:33N 22°11' E 113°35'0 0.0
2014-Jun-13 02:32N 22°11' E 113°35'0 0.0
2014-Jun-13 01:33N 22°11' E 113°35'3231.9
2014-Jun-13 00:32N 22°17' E 114°09'1515.7
2014-Jun-12 23:33N 22°12' E 113°54'1918.6
2014-Jun-12 22:33N 22°12' E 113°34'0 0.0
2014-Jun-12 21:33N 22°12' E 113°34'0 0.0
2014-Jun-12 20:34N 22°12' E 113°34'0 0.0
2014-Jun-12 19:34N 22°12' E 113°34'0 0.0
2014-Jun-12 18:33N 22°12' E 113°34'0 0.0
2014-Jun-12 17:33N 22°12' E 113°34'1717.3
2014-Jun-12 16:34N 22°12' E 113°52'1716.6
2014-Jun-12 15:34N 22°17' E 114°09'3333.2
2014-Jun-12 14:33N 22°12' E 113°34'1616.2
2014-Jun-12 13:33N 22°11' E 113°51'1817.7
2014-Jun-12 12:33N 22°17' E 114°09'3333.3
2014-Jun-12 11:33N 22°12' E 113°34'1918.6
2014-Jun-12 10:33N 22°12' E 113°54'2 1.9
2014-Jun-12 09:16N 22°12' E 113°56'2129.4
2014-Jun-12 08:33N 22°12' E 113°34'1919.5
2014-Jun-12 07:33N 22°12' E 113°55'1414.6
2014-Jun-12 06:34N 22°17' E 114°09'3333.0
2014-Jun-12 05:33N 22°12' E 113°34'1 0.6
2014-Jun-12 04:33N 22°11' E 113°34'3333.1
2014-Jun-12 03:33N 22°17' E 114°09'1717.4
2014-Jun-12 02:34N 22°11' E 113°52'1616.3
2014-Jun-12 01:33N 22°11' E 113°34'3332.9
2014-Jun-12 00:33N 22°17' E 114°09'33 5.6
2014-Jun-11 18:33N 22°12' E 113°34'1717.5
2014-Jun-11 17:33N 22°12' E 113°52'1616.4
2014-Jun-11 16:33N 22°17' E 114°09'1615.9
2014-Jun-11 15:33N 22°12' E 113°53'1818.0
2014-Jun-11 14:33N 22°11' E 113°34'3333.1
2014-Jun-11 13:33N 22°17' E 114°09'1310.9
2014-Jun-11 12:24N 22°12' E 113°57'2125.3
2014-Jun-11 11:33N 22°12' E 113°34'0 0.0
2014-Jun-11 10:33N 22°12' E 113°34'0 0.0
2014-Jun-11 09:33N 22°12' E 113°34'3333.2
2014-Jun-11 08:33N 22°17' E 114°09'1413.6
2014-Jun-11 07:33N 22°12' E 113°56'2020.5
2014-Jun-11 06:33N 22°12' E 113°34'0 0.0
2014-Jun-11 05:33N 22°12' E 113°34'7 6.9
2014-Jun-11 04:33N 22°11' E 113°41'2726.6
2014-Jun-11 03:33N 22°17' E 114°09'2827.9
2014-Jun-11 02:33N 22°10' E 113°40'1 0.9
2014-Jun-11 01:33N 22°11' E 113°40'2727.1
2014-Jun-11 00:33N 22°17' E 114°09'0 0.1
2014-Jun-10 23:33N 22°17' E 114°09'0 0.0
2014-Jun-10 22:33N 22°17' E 114°09'0 0.0
2014-Jun-10 21:33N 22°17' E 114°09'0 0.0
2014-Jun-10 20:33N 22°17' E 114°09'0 0.0
2014-Jun-10 19:33N 22°17' E 114°09'0 0.0
2014-Jun-10 18:33N 22°17' E 114°09'0 0.0
2014-Jun-10 17:33N 22°17' E 114°09'0 0.0
2014-Jun-10 16:33N 22°17' E 114°09'0 0.0
2014-Jun-10 15:33N 22°17' E 114°09'0 0.4
2014-Jun-10 14:33N 22°17' E 114°09'3332.7
2014-Jun-10 13:33N 22°12' E 113°34'0 0.0
2014-Jun-10 12:26N 22°12' E 113°34'3131.5
2014-Jun-10 11:26N 22°17' E 114°07'2 2.2
2014-Jun-10 10:33N 22°17' E 114°09'0 0.0
2014-Jun-10 09:33N 22°17' E 114°09'2019.8
2014-Jun-10 08:33N 22°11' E 113°49'1414.1
2014-Jun-10 07:33N 22°12' E 113°34'3229.1
2014-Jun-10 06:27N 22°17' E 114°08'29 9.9
2014-Jun-10 03:33N 22°11' E 113°37'3029.8
2014-Jun-10 02:33N 22°17' E 114°09'2727.3
2014-Jun-10 01:33N 22°11' E 113°41'6 5.6
2014-Jun-10 00:33N 22°12' E 113°47'2221.6
2014-Jun-09 23:33N 22°17' E 114°09'3333.3
2014-Jun-09 22:33N 22°12' E 113°34'4 4.1
2014-Jun-09 21:33N 22°11' E 113°38'3029.4
2014-Jun-09 20:33N 22°17' E 114°09'0 0.1
2014-Jun-09 19:34N 22°17' E 114°09'0 0.0
2014-Jun-09 18:33N 22°17' E 114°09'0 0.0
2014-Jun-09 17:34N 22°17' E 114°09'3333.2
2014-Jun-09 16:33N 22°12' E 113°34'0 0.0
2014-Jun-09 15:33N 22°12' E 113°34'3333.3
2014-Jun-09 14:33N 22°17' E 114°09'1716.6
2014-Jun-09 13:34N 22°11' E 113°52'1717.4
2014-Jun-09 12:33N 22°12' E 113°34'3333.6
2014-Jun-09 11:33N 22°17' E 114°09'1615.7
2014-Jun-09 10:34N 22°12' E 113°53'1818.3
2014-Jun-09 09:33N 22°12' E 113°34'0 0.0
2014-Jun-09 08:33N 22°12' E 113°34'0 0.0
2014-Jun-09 07:33N 22°12' E 113°34'0 0.0
2014-Jun-09 06:33N 22°12' E 113°34'3333.2
2014-Jun-09 05:33N 22°17' E 114°09'0 0.0
2014-Jun-09 04:33N 22°17' E 114°09'3333.3
2014-Jun-09 03:33N 22°12' E 113°34'1817.9
2014-Jun-09 02:33N 22°12' E 113°53'1615.9
2014-Jun-09 01:33N 22°17' E 114°09'3333.4
2014-Jun-09 00:33N 22°12' E 113°34'1717.2
2014-Jun-08 23:33N 22°12' E 113°52'1716.7
2014-Jun-08 22:33N 22°17' E 114°09'0 0.1
2014-Jun-08 21:33N 22°17' E 114°09'0 0.0
2014-Jun-08 20:33N 22°17' E 114°09'0 0.0
2014-Jun-08 19:33N 22°17' E 114°09'0 0.0
2014-Jun-08 18:33N 22°17' E 114°09'0 0.0
2014-Jun-08 17:31N 22°17' E 114°09'0 0.1
2014-Jun-08 16:33N 22°17' E 114°09'2828.6
2014-Jun-08 15:33N 22°10' E 113°40'3 3.1
2014-Jun-08 14:33N 22°12' E 113°43'2525.0
2014-Jun-08 13:33N 22°17' E 114°09'2727.2
2014-Jun-08 12:33N 22°11' E 113°41'7 6.5
2014-Jun-08 11:32N 22°12' E 113°34'0 0.1
2014-Jun-08 10:33N 22°12' E 113°34'3333.3
2014-Jun-08 09:33N 22°17' E 114°09'0 0.0
2014-Jun-08 08:33N 22°17' E 114°09'0 0.1
2014-Jun-08 07:33N 22°17' E 114°09'0 0.0
2014-Jun-08 06:33N 22°17' E 114°09'0 0.0
2014-Jun-08 05:33N 22°17' E 114°09'0 0.0
2014-Jun-08 04:32N 22°17' E 114°09'0 0.0
2014-Jun-08 03:32N 22°17' E 114°09'0 0.0
2014-Jun-08 02:33N 22°17' E 114°09'0 0.0
2014-Jun-08 01:33N 22°17' E 114°09'0 0.0
2014-Jun-08 00:33N 22°17' E 114°09'0 0.0
2014-Jun-07 23:33N 22°17' E 114°09'0 0.0
2014-Jun-07 22:33N 22°17' E 114°09'0 0.0
2014-Jun-07 21:33N 22°17' E 114°09'0 0.0
2014-Jun-07 20:34N 22°17' E 114°09'0 0.0
2014-Jun-07 19:32N 22°17' E 114°09'0 0.0
2014-Jun-07 18:32N 22°17' E 114°09'0 0.0
2014-Jun-07 17:33N 22°17' E 114°09'0 0.0
2014-Jun-07 16:33N 22°17' E 114°09'0 0.0
2014-Jun-07 15:33N 22°17' E 114°09'0 0.1
2014-Jun-07 14:33N 22°17' E 114°09'3333.6
2014-Jun-07 13:33N 22°12' E 113°34'0 0.1
2014-Jun-07 12:33N 22°12' E 113°34'3227.7
2014-Jun-07 11:24N 22°18' E 114°08'1 1.4
2014-Jun-07 10:33N 22°17' E 114°09'0 0.0
2014-Jun-07 09:33N 22°17' E 114°09'3029.8
2014-Jun-07 08:33N 22°11' E 113°38'6 5.7
2014-Jun-07 07:33N 22°12' E 113°44'2419.8
2014-Jun-07 06:21N 22°17' E 114°09'3138.7
2014-Jun-07 05:33N 22°10' E 113°37'3 3.4
2014-Jun-07 04:33N 22°12' E 113°34'3333.7
2014-Jun-07 03:33N 22°17' E 114°09'0 0.1
2014-Jun-07 02:33N 22°17' E 114°09'0 0.3
2014-Jun-07 01:33N 22°17' E 114°09'0 0.1
2014-Jun-07 00:32N 22°17' E 114°09'0 0.0
2014-Jun-06 23:33N 22°17' E 114°09'0 0.1
2014-Jun-06 22:33N 22°17' E 114°09'0 0.0
2014-Jun-06 21:33N 22°17' E 114°09'0 0.1
2014-Jun-06 20:33N 22°17' E 114°09'0 0.1
2014-Jun-06 19:33N 22°17' E 114°09'0 0.1
2014-Jun-06 18:33N 22°17' E 114°09'0 0.0
2014-Jun-06 17:33N 22°17' E 114°09'0 0.1
2014-Jun-06 16:32N 22°17' E 114°09'0 0.1
2014-Jun-06 15:33N 22°17' E 114°09'0 0.0
2014-Jun-06 14:33N 22°17' E 114°09'0 0.1
2014-Jun-06 13:32N 22°17' E 114°09'0 0.1
2014-Jun-06 12:31N 22°17' E 114°09'0 0.1
2014-Jun-06 11:32N 22°17' E 114°09'0 0.0
2014-Jun-06 10:33N 22°17' E 114°09'0 0.0
2014-Jun-06 09:33N 22°17' E 114°09'0 0.0
2014-Jun-06 08:33N 22°17' E 114°09'0 0.0
2014-Jun-06 07:33N 22°17' E 114°09'0 0.0
2014-Jun-06 06:32N 22°17' E 114°09'0 0.0
2014-Jun-06 05:33N 22°17' E 114°09'0 0.0
2014-Jun-06 04:33N 22°17' E 114°09'0 0.0
2014-Jun-06 03:34N 22°17' E 114°09'0 0.0
2014-Jun-06 02:33N 22°17' E 114°09'0 0.1
2014-Jun-06 01:33N 22°17' E 114°09'0 0.1
2014-Jun-06 00:33N 22°17' E 114°09'0 0.0
2014-Jun-05 23:33N 22°17' E 114°09'0 0.1
2014-Jun-05 22:33N 22°17' E 114°09'0 0.0
2014-Jun-05 21:33N 22°17' E 114°09'0 0.1
2014-Jun-05 20:33N 22°17' E 114°09'0 0.1
2014-Jun-05 19:33N 22°17' E 114°09'0 0.1
2014-Jun-05 18:33N 22°17' E 114°09'0 0.0
2014-Jun-05 17:07N 22°17' E 114°09'0 0.0
2014-Jun-05 16:33N 22°17' E 114°09'0 0.0
2014-Jun-05 15:33N 22°17' E 114°09'0 0.3
2014-Jun-05 14:33N 22°17' E 114°09'3333.1
2014-Jun-05 13:33N 22°12' E 113°34'0 0.0
2014-Jun-05 12:33N 22°12' E 113°34'3329.3
2014-Jun-05 11:27N 22°18' E 114°08'1 1.0
2014-Jun-05 10:33N 22°17' E 114°09'0 0.0
2014-Jun-05 09:32N 22°17' E 114°09'1818.1
2014-Jun-05 08:33N 22°11' E 113°51'1515.3
2014-Jun-05 07:33N 22°11' E 113°35'3332.6
2014-Jun-05 06:33N 22°17' E 114°09'0 0.0
2014-Jun-05 05:33N 22°17' E 114°09'3333.2
2014-Jun-05 04:33N 22°12' E 113°34'7 7.3
2014-Jun-05 03:33N 22°11' E 113°41'2626.3
2014-Jun-05 02:33N 22°17' E 114°09'2625.7
2014-Jun-05 01:34N 22°11' E 113°42'1 1.1
2014-Jun-05 00:33N 22°12' E 113°41'2626.0
2014-Jun-04 23:32N 22°17' E 114°09'0 0.1
2014-Jun-04 22:25N 22°17' E 114°09'0 0.0
2014-Jun-04 21:33N 22°17' E 114°09'0 0.0
2014-Jun-04 20:25N 22°17' E 114°09'1719.7
2014-Jun-04 19:34N 22°11' E 113°52'1717.0
2014-Jun-04 18:33N 22°12' E 113°34'1413.8
2014-Jun-04 17:33N 22°12' E 113°49'2019.8
2014-Jun-04 16:33N 22°17' E 114°09'10 9.6
2014-Jun-04 15:29N 22°12' E 113°60'2425.8
2014-Jun-04 14:33N 22°12' E 113°34'3228.8
2014-Jun-04 13:26N 22°18' E 114°08'1110.9
2014-Jun-04 12:27N 22°12' E 113°58'2325.5
2014-Jun-04 11:33N 22°12' E 113°34'0 0.0
2014-Jun-04 10:33N 22°12' E 113°34'0 0.0
2014-Jun-04 09:33N 22°12' E 113°34'0 0.0
2014-Jun-04 08:33N 22°12' E 113°34'0 0.0
2014-Jun-04 07:33N 22°12' E 113°34'0 0.0
2014-Jun-04 06:33N 22°12' E 113°34'0 0.2
2014-Jun-04 05:33N 22°12' E 113°34'3326.8
2014-Jun-04 04:19N 22°17' E 114°09'1312.3
2014-Jun-04 03:16N 22°12' E 113°57'2129.9
2014-Jun-04 02:34N 22°12' E 113°34'2221.7
2014-Jun-04 01:32N 22°12' E 113°57'12 9.4
2014-Jun-04 00:16N 22°17' E 114°09'0 0.0
2014-Jun-03 23:31N 22°17' E 114°09'0 0.1
2014-Jun-03 22:33N 22°17' E 114°09'0 0.0
2014-Jun-03 21:33N 22°17' E 114°09'0 0.0
2014-Jun-03 20:32N 22°17' E 114°09'0 0.0
2014-Jun-03 19:33N 22°17' E 114°09'0 0.0
2014-Jun-03 18:32N 22°17' E 114°09'0 0.0
2014-Jun-03 17:33N 22°17' E 114°09'0 0.0
2014-Jun-03 16:33N 22°17' E 114°09'1210.6
2014-Jun-03 15:25N 22°12' E 113°57'2225.5
2014-Jun-03 14:33N 22°12' E 113°34'3227.8
2014-Jun-03 13:24N 22°18' E 114°08'1011.1
2014-Jun-03 12:27N 22°12' E 113°58'2325.3
2014-Jun-03 11:33N 22°12' E 113°34'0 0.0
2014-Jun-03 10:33N 22°12' E 113°34'1 1.2
2014-Jun-03 09:33N 22°11' E 113°35'3332.3
2014-Jun-03 08:33N 22°17' E 114°09'1919.3
2014-Jun-03 07:34N 22°11' E 113°50'1514.7
2014-Jun-03 06:33N 22°12' E 113°34'  

Dump ship's entire track history